Cool Ridge Heights, Ohio
Current Conditions -  °F | °C
As of 6:52 PM on Thursday 27 Nov 2014 (Local Time) from KMFD Reporting Station
Overcast Overcast  
Wind Chill: 21°   Ceiling: 1700
Heat Index: 30°   Visibility: 10mi
Dew Point: 25°   Wind: 10mph
Humidity: 82%   Direction: 240°WSW
Pressure: 30.21"   Gusts: NA
Location:  40.7762°N, 82.4707°W
Report Text: KMFD 272352Z 24009KT 10SM BKN017 OVC042 M01/M04 A3021 RMK AO2 SLP244 60001 T10111039 10006 21017 51013
Loading
Personal Weather Stations






























Interactive Weather Map New forecast layout! Learn more

10-Day Weather Forecast

Advertisements
Track Severe Weather on mobile